createdAt,value
2019-03-09T00:00:43.485Z,0.00
2019-03-09T00:01:43.536Z,0.00
2019-03-09T00:02:43.575Z,0.00
2019-03-09T00:03:43.638Z,0.00
2019-03-09T00:04:43.664Z,0.00
2019-03-09T00:05:43.725Z,0.00
2019-03-09T00:06:43.750Z,0.00
2019-03-09T00:07:43.782Z,0.00
2019-03-09T00:08:43.853Z,0.00
2019-03-09T00:09:43.874Z,0.00
2019-03-09T00:10:43.920Z,0.00
2019-03-09T00:11:43.964Z,0.00
2019-03-09T00:12:44.007Z,0.00
2019-03-09T00:13:44.068Z,0.00
2019-03-09T00:14:44.093Z,0.00
2019-03-09T00:15:44.165Z,0.00
2019-03-09T00:16:44.198Z,0.00
2019-03-09T00:17:44.225Z,0.00
2019-03-09T00:18:44.262Z,0.00
2019-03-09T00:19:44.341Z,0.00
2019-03-09T00:20:44.350Z,0.00
2019-03-09T00:21:44.400Z,0.00
2019-03-09T00:22:44.435Z,0.00
2019-03-09T00:23:44.513Z,0.00
2019-03-09T00:24:44.557Z,0.00
2019-03-09T00:25:44.574Z,0.00
2019-03-09T00:26:44.611Z,0.00
2019-03-09T00:27:44.664Z,0.00
2019-03-09T00:28:44.696Z,0.00
2019-03-09T00:29:44.766Z,0.00
2019-03-09T00:30:44.786Z,0.00
2019-03-09T00:31:44.849Z,0.00
2019-03-09T00:32:44.875Z,0.00
2019-03-09T00:33:44.918Z,0.00
2019-03-09T00:34:44.958Z,0.00
2019-03-09T00:35:45.005Z,0.00
2019-03-09T00:36:45.087Z,0.00
2019-03-09T00:37:45.091Z,0.00
2019-03-09T00:38:45.138Z,0.00
2019-03-09T00:39:45.176Z,0.00
2019-03-09T00:40:45.230Z,0.00
2019-03-09T00:41:45.310Z,0.00
2019-03-09T00:42:45.342Z,0.00
2019-03-09T00:43:45.345Z,0.00
2019-03-09T00:44:45.397Z,0.00
2019-03-09T00:45:45.439Z,0.00
2019-03-09T00:46:45.627Z,0.00
2019-03-09T00:47:45.527Z,0.00
2019-03-09T00:48:45.572Z,0.00
2019-03-09T00:49:45.611Z,0.00
2019-03-09T00:50:45.672Z,0.00
2019-03-09T00:51:45.695Z,0.00
2019-03-09T00:52:45.755Z,0.00
2019-03-09T00:53:45.915Z,0.00
2019-03-09T00:54:45.827Z,0.00
2019-03-09T00:55:45.900Z,0.00
2019-03-09T00:56:45.946Z,0.00
2019-03-09T00:57:45.962Z,0.00
2019-03-09T00:58:46.011Z,0.00
2019-03-09T00:59:46.063Z,0.00
2019-03-09T01:00:46.667Z,0.00
2019-03-09T01:01:46.168Z,0.00
2019-03-09T01:02:46.175Z,0.00
2019-03-09T01:03:46.219Z,0.00
2019-03-09T01:04:46.269Z,0.00
2019-03-09T01:05:46.311Z,0.00
2019-03-09T01:06:46.370Z,0.00
2019-03-09T01:07:46.397Z,0.00
2019-03-09T01:08:46.441Z,0.00
2019-03-09T01:09:46.489Z,0.00
2019-03-09T01:10:46.532Z,0.00
2019-03-09T01:11:46.591Z,0.00
2019-03-09T01:12:46.631Z,0.00
2019-03-09T01:13:46.662Z,0.00
2019-03-09T01:14:46.822Z,0.00
2019-03-09T01:15:46.743Z,0.00
2019-03-09T01:16:46.814Z,0.00
2019-03-09T01:17:46.840Z,0.00
2019-03-09T01:18:46.880Z,0.00
2019-03-09T01:19:46.920Z,0.00
2019-03-09T01:20:46.963Z,0.00
2019-03-09T01:21:47.075Z,0.00
2019-03-09T01:22:47.067Z,0.00
2019-03-09T01:23:47.090Z,0.00
2019-03-09T01:24:47.159Z,0.00
2019-03-09T01:25:47.184Z,0.00
2019-03-09T01:26:47.244Z,0.00
2019-03-09T01:27:47.267Z,0.00
2019-03-09T01:28:47.409Z,0.00
2019-03-09T01:29:47.351Z,0.00
2019-03-09T01:30:47.400Z,0.00
2019-03-09T01:31:47.461Z,0.00
2019-03-09T01:32:47.481Z,0.00
2019-03-09T01:33:47.529Z,0.00
2019-03-09T01:34:47.576Z,0.00
2019-03-09T01:35:47.652Z,0.00
2019-03-09T01:36:47.682Z,0.00
2019-03-09T01:37:47.705Z,0.00
2019-03-09T01:38:47.745Z,0.00
2019-03-09T01:39:47.793Z,0.00
2019-03-09T01:40:47.865Z,0.00
2019-03-09T01:41:47.894Z,0.00
2019-03-09T01:42:47.917Z,0.00
2019-03-09T01:43:47.990Z,0.00
2019-03-09T01:44:48.011Z,0.00
2019-03-09T01:45:48.053Z,0.00
2019-03-09T01:46:48.110Z,0.00
2019-03-09T01:47:48.145Z,0.00
2019-03-09T01:48:48.178Z,0.00
2019-03-09T01:49:48.241Z,0.00
2019-03-09T01:50:48.266Z,0.00
2019-03-09T01:51:48.311Z,0.00
2019-03-09T01:52:48.366Z,0.00
2019-03-09T01:53:48.397Z,0.00
2019-03-09T01:54:48.461Z,0.00
2019-03-09T01:55:48.537Z,0.00
2019-03-09T01:56:48.529Z,0.00
2019-03-09T01:57:48.572Z,0.00
2019-03-09T01:58:48.629Z,0.00
2019-03-09T01:59:48.661Z,0.00
2019-03-09T02:00:48.698Z,0.00
2019-03-09T02:01:48.740Z,0.00
2019-03-09T02:02:48.806Z,0.00
2019-03-09T02:03:48.829Z,0.00
2019-03-09T02:04:48.873Z,0.00
2019-03-09T02:05:48.929Z,0.00
2019-03-09T02:06:48.961Z,0.00
2019-03-09T02:07:49.028Z,0.00
2019-03-09T02:08:49.069Z,0.00
2019-03-09T02:09:49.087Z,0.00
2019-03-09T02:10:49.135Z,0.00
2019-03-09T02:11:49.175Z,0.00
2019-03-09T02:12:49.297Z,0.00
2019-03-09T02:13:49.303Z,0.00
2019-03-09T02:14:49.308Z,0.00
2019-03-09T02:15:49.350Z,0.00
2019-03-09T02:16:49.390Z,0.00
2019-03-09T02:17:49.435Z,0.00
2019-03-09T02:18:49.502Z,0.00
2019-03-09T02:19:49.529Z,0.00
2019-03-09T02:20:49.566Z,0.00
2019-03-09T02:21:49.609Z,0.00
2019-03-09T02:22:49.669Z,0.00
2019-03-09T02:23:49.711Z,0.00
2019-03-09T02:24:49.738Z,0.00
2019-03-09T02:25:49.779Z,0.00
2019-03-09T02:26:49.827Z,0.00
2019-03-09T02:27:49.867Z,0.00
2019-03-09T02:28:49.934Z,0.00
2019-03-09T02:29:49.955Z,0.00
2019-03-09T02:30:49.997Z,0.00
2019-03-09T02:31:50.049Z,0.00
2019-03-09T02:32:50.092Z,0.00
2019-03-09T02:33:50.153Z,0.00
2019-03-09T02:34:50.194Z,0.00
2019-03-09T02:35:50.225Z,0.00
2019-03-09T02:36:50.277Z,0.00
2019-03-09T02:37:50.308Z,0.00
2019-03-09T02:38:50.385Z,0.00
2019-03-09T02:39:50.405Z,0.00
2019-03-09T02:40:50.432Z,0.00
2019-03-09T02:41:50.483Z,0.00
2019-03-09T02:42:50.528Z,0.00
2019-03-09T02:43:50.578Z,0.00
2019-03-09T02:44:50.603Z,0.00
2019-03-09T02:45:50.671Z,0.00
2019-03-09T02:46:50.690Z,0.00
2019-03-09T02:47:50.738Z,0.00
2019-03-09T02:48:50.791Z,0.00
2019-03-09T02:49:50.825Z,0.00
2019-03-09T02:50:50.904Z,0.00
2019-03-09T02:51:50.951Z,0.00
2019-03-09T02:52:50.962Z,0.00
2019-03-09T02:53:50.998Z,0.00
2019-03-09T02:54:51.040Z,0.00
2019-03-09T02:55:51.120Z,0.00
2019-03-09T02:56:51.126Z,0.00
2019-03-09T02:57:51.176Z,0.00
2019-03-09T02:58:51.242Z,0.00
2019-03-09T02:59:51.259Z,0.00
2019-03-09T03:00:51.335Z,0.00
2019-03-09T03:01:51.346Z,0.00
2019-03-09T03:02:51.394Z,0.00
2019-03-09T03:03:51.448Z,0.00
2019-03-09T03:04:51.485Z,0.00
2019-03-09T03:05:51.539Z,0.00
2019-03-09T03:06:51.706Z,0.00
2019-03-09T03:07:51.612Z,0.00
2019-03-09T03:08:51.652Z,0.00
2019-03-09T03:09:51.721Z,0.00
2019-03-09T03:10:51.762Z,0.00
2019-03-09T03:11:51.782Z,0.00
2019-03-09T03:12:51.825Z,0.00
2019-03-09T03:13:51.874Z,0.00
2019-03-09T03:14:51.920Z,0.00
2019-03-09T03:15:51.990Z,0.00
2019-03-09T03:16:52.009Z,0.00
2019-03-09T03:17:52.050Z,0.00
2019-03-09T03:18:52.086Z,0.00
2019-03-09T03:19:52.134Z,0.00
2019-03-09T03:20:52.195Z,0.00
2019-03-09T03:21:52.235Z,0.00
2019-03-09T03:22:52.269Z,0.00
2019-03-09T03:23:52.306Z,0.00
2019-03-09T03:24:52.350Z,0.00
2019-03-09T03:25:52.392Z,0.00
2019-03-09T03:26:52.458Z,0.00
2019-03-09T03:27:52.481Z,0.00
2019-03-09T03:28:52.525Z,0.00
2019-03-09T03:29:52.567Z,0.00
2019-03-09T03:30:52.625Z,0.00
2019-03-09T03:31:52.663Z,0.00
2019-03-09T03:32:52.702Z,0.00
2019-03-09T03:33:52.742Z,0.00
2019-03-09T03:34:52.783Z,0.00
2019-03-09T03:35:52.843Z,0.00
2019-03-09T03:36:52.879Z,0.00
2019-03-09T03:37:52.916Z,0.00
2019-03-09T03:38:52.961Z,0.00
2019-03-09T03:39:53.006Z,0.00
2019-03-09T03:40:53.072Z,0.00
2019-03-09T03:41:53.116Z,0.00
2019-03-09T03:42:53.168Z,0.00
2019-03-09T03:43:53.183Z,0.00
2019-03-09T03:44:53.227Z,0.00
2019-03-09T03:45:53.264Z,0.00
2019-03-09T03:46:53.351Z,0.00
2019-03-09T03:47:53.381Z,0.00
2019-03-09T03:48:53.402Z,0.00
2019-03-09T03:49:53.441Z,0.00
2019-03-09T03:50:53.488Z,0.00
2019-03-09T03:51:53.549Z,0.00
2019-03-09T03:52:53.581Z,0.00
2019-03-09T03:53:53.618Z,0.00
2019-03-09T03:54:53.671Z,0.00
2019-03-09T03:55:53.715Z,0.00
2019-03-09T03:56:53.765Z,0.00
2019-03-09T03:57:53.791Z,0.00
2019-03-09T03:58:53.841Z,0.00
2019-03-09T03:59:53.879Z,0.00
2019-03-09T04:00:53.924Z,0.00
2019-03-09T04:01:53.986Z,0.00
2019-03-09T04:02:54.006Z,0.00
2019-03-09T04:03:54.051Z,0.00
2019-03-09T04:04:54.103Z,0.00
2019-03-09T04:05:54.152Z,0.00
2019-03-09T04:06:54.202Z,0.00
2019-03-09T04:07:54.238Z,0.00
2019-03-09T04:08:54.291Z,0.00
2019-03-09T04:09:54.318Z,0.00
2019-03-09T04:10:54.368Z,0.00
2019-03-09T04:11:54.432Z,0.00
2019-03-09T04:12:54.450Z,0.00
2019-03-09T04:13:54.492Z,0.00
2019-03-09T04:14:54.542Z,0.00
2019-03-09T04:15:54.577Z,0.00
2019-03-09T04:16:54.660Z,0.00
2019-03-09T04:17:54.670Z,0.00
2019-03-09T04:18:54.714Z,0.00
2019-03-09T04:19:54.758Z,0.00
2019-03-09T04:20:54.799Z,0.00
2019-03-09T04:21:54.863Z,0.00
2019-03-09T04:22:54.905Z,0.00
2019-03-09T04:23:54.940Z,0.00
2019-03-09T04:24:55.001Z,0.00
2019-03-09T04:25:55.019Z,0.00
2019-03-09T04:26:55.061Z,0.00
2019-03-09T04:27:55.127Z,0.00
2019-03-09T04:28:55.151Z,0.00
2019-03-09T04:29:55.195Z,0.00
2019-03-09T04:30:55.238Z,0.00
2019-03-09T04:31:55.284Z,0.00
2019-03-09T04:32:55.349Z,0.00
2019-03-09T04:33:55.369Z,0.00
2019-03-09T04:34:55.443Z,0.00
2019-03-09T04:35:55.458Z,0.00
2019-03-09T04:36:55.503Z,0.00
2019-03-09T04:37:55.575Z,0.00
2019-03-09T04:38:55.606Z,0.00
2019-03-09T04:39:55.656Z,0.00
2019-03-09T04:40:55.684Z,0.00
2019-03-09T04:41:55.726Z,0.00
2019-03-09T04:42:55.787Z,0.00
2019-03-09T04:43:55.815Z,0.00
2019-03-09T04:44:55.858Z,0.00
2019-03-09T04:45:55.898Z,0.00
2019-03-09T04:46:55.953Z,0.00
2019-03-09T04:47:56.013Z,0.00
2019-03-09T04:48:56.040Z,0.00
2019-03-09T04:49:56.077Z,0.00
2019-03-09T04:50:56.120Z,0.00
2019-03-09T04:51:56.161Z,0.00
2019-03-09T04:52:56.236Z,0.00
2019-03-09T04:53:56.252Z,0.00
2019-03-09T04:54:56.294Z,0.00
2019-03-09T04:55:56.346Z,0.00
2019-03-09T04:56:56.383Z,0.00
2019-03-09T04:57:56.446Z,0.00
2019-03-09T04:58:56.507Z,0.00
2019-03-09T04:59:56.525Z,0.00
2019-03-09T05:00:56.558Z,0.00
2019-03-09T05:01:56.618Z,0.00
2019-03-09T05:02:56.646Z,0.00
2019-03-09T05:03:56.711Z,0.00
2019-03-09T05:04:58.799Z,0.00
2019-03-09T05:05:56.777Z,0.00
2019-03-09T05:06:56.823Z,0.00
2019-03-09T05:07:56.867Z,0.00
2019-03-09T05:08:56.935Z,0.00
2019-03-09T05:09:56.956Z,0.00
2019-03-09T05:10:57.005Z,0.00
2019-03-09T05:11:57.051Z,0.00
2019-03-09T05:12:57.712Z,0.00
2019-03-09T05:13:57.159Z,0.00
2019-03-09T05:14:57.175Z,0.00
2019-03-09T05:15:57.222Z,0.00
2019-03-09T05:16:57.264Z,0.00
2019-03-09T05:17:57.307Z,0.00
2019-03-09T05:18:57.400Z,0.00
2019-03-09T05:19:57.406Z,0.00
2019-03-09T05:20:57.447Z,0.00
2019-03-09T05:21:57.486Z,0.00
2019-03-09T05:22:57.546Z,0.00
2019-03-09T05:23:57.595Z,0.00
2019-03-09T05:24:57.621Z,4.00
2019-03-09T05:25:57.689Z,4.00
2019-03-09T05:26:57.708Z,4.00
2019-03-09T05:27:57.773Z,4.00
2019-03-09T05:28:57.821Z,4.00
2019-03-09T05:29:57.871Z,4.00
2019-03-09T05:30:57.904Z,8.00
2019-03-09T05:31:57.935Z,12.00
2019-03-09T05:32:57.983Z,12.00
2019-03-09T05:33:58.019Z,16.00
2019-03-09T05:34:58.088Z,16.00
2019-03-09T05:35:58.105Z,20.00
2019-03-09T05:36:58.166Z,20.00
2019-03-09T05:37:58.198Z,28.00
2019-03-09T05:38:58.242Z,28.00
2019-03-09T05:39:58.306Z,32.00
2019-03-09T05:40:58.331Z,40.00
2019-03-09T05:41:58.373Z,44.00
2019-03-09T05:42:58.420Z,52.00
2019-03-09T05:43:58.593Z,60.00
2019-03-09T05:44:58.546Z,68.00
2019-03-09T05:45:58.551Z,80.00
2019-03-09T05:46:58.597Z,92.00
2019-03-09T05:47:58.648Z,104.00
2019-03-09T05:48:58.691Z,112.00
2019-03-09T05:49:58.749Z,128.00
2019-03-09T05:50:58.891Z,140.00
2019-03-09T05:51:58.822Z,152.00
2019-03-09T05:52:58.872Z,156.00
2019-03-09T05:53:58.910Z,164.00
2019-03-09T05:54:58.983Z,148.00
2019-03-09T05:55:59.015Z,156.00
2019-03-09T05:56:59.041Z,204.00
2019-03-09T05:57:59.194Z,248.00
2019-03-09T05:58:59.129Z,276.00
2019-03-09T05:59:59.178Z,308.00
2019-03-09T06:00:59.244Z,372.00
2019-03-09T06:01:59.262Z,420.00
2019-03-09T06:02:59.327Z,448.00
2019-03-09T06:04:00.284Z,480.00
2019-03-09T06:04:59.505Z,528.00
2019-03-09T06:05:59.441Z,536.00
2019-03-09T06:06:59.487Z,520.00
2019-03-09T06:07:59.554Z,524.00
2019-03-09T06:08:59.581Z,496.00
2019-03-09T06:09:59.625Z,468.00
2019-03-09T06:10:59.692Z,468.00
2019-03-09T06:11:59.741Z,444.00
2019-03-09T06:12:59.755Z,396.00
2019-03-09T06:13:59.806Z,396.00
2019-03-09T06:14:59.847Z,456.00
2019-03-09T06:15:59.914Z,524.00
2019-03-09T06:16:59.935Z,604.00
2019-03-09T06:18:00.005Z,704.00
2019-03-09T06:19:00.028Z,752.00
2019-03-09T06:20:00.067Z,796.00
2019-03-09T06:21:00.189Z,800.00
2019-03-09T06:22:00.184Z,796.00
2019-03-09T06:23:00.219Z,764.00
2019-03-09T06:24:00.247Z,844.00
2019-03-09T06:25:00.350Z,900.00
2019-03-09T06:26:00.353Z,924.00
2019-03-09T06:27:00.381Z,956.00
2019-03-09T06:28:00.589Z,980.00
2019-03-09T06:29:00.472Z,972.00
2019-03-09T06:30:00.522Z,944.00
2019-03-09T06:31:00.562Z,1020.00
2019-03-09T06:32:00.606Z,1128.00
2019-03-09T06:33:00.685Z,1196.00
2019-03-09T06:34:00.700Z,1236.00
2019-03-09T06:35:00.790Z,1264.00
2019-03-09T06:36:00.788Z,1328.00
2019-03-09T06:37:00.831Z,1432.00
2019-03-09T06:38:00.899Z,1464.00
2019-03-09T06:39:00.918Z,1460.00
2019-03-09T06:40:00.965Z,1504.00
2019-03-09T06:41:03.127Z,1460.00
2019-03-09T06:42:01.053Z,1276.00
2019-03-09T06:43:01.121Z,1304.00
2019-03-09T06:44:01.150Z,1412.00
2019-03-09T06:45:01.188Z,1532.00
2019-03-09T06:46:01.246Z,1540.00
2019-03-09T06:47:01.291Z,1508.00
2019-03-09T06:48:01.349Z,1336.00
2019-03-09T06:49:01.369Z,1216.00
2019-03-09T06:50:01.414Z,1124.00
2019-03-09T06:51:01.458Z,1036.00
2019-03-09T06:52:01.508Z,1084.00
2019-03-09T06:53:02.958Z,1092.00
2019-03-09T06:54:01.623Z,1092.00
2019-03-09T06:55:01.640Z,1016.00
2019-03-09T06:56:01.683Z,1004.00
2019-03-09T06:57:01.726Z,1068.00
2019-03-09T06:58:01.791Z,1124.00
2019-03-09T06:59:01.828Z,1096.00
2019-03-09T07:00:01.890Z,1076.00
2019-03-09T07:01:01.908Z,1040.00
2019-03-09T07:02:01.949Z,1032.00
2019-03-09T07:03:01.995Z,1220.00
2019-03-09T07:04:02.041Z,1440.00
2019-03-09T07:05:02.118Z,1708.00
2019-03-09T07:06:02.135Z,1800.00
2019-03-09T07:07:02.181Z,1736.00
2019-03-09T07:08:02.237Z,1752.00
2019-03-09T07:09:02.298Z,2080.00
2019-03-09T07:10:02.314Z,2444.00
2019-03-09T07:11:02.358Z,2760.00
2019-03-09T07:12:02.397Z,3008.00
2019-03-09T07:13:02.449Z,3084.00
2019-03-09T07:14:02.507Z,2912.00
2019-03-09T07:15:02.719Z,3040.00
2019-03-09T07:16:02.580Z,3088.00
2019-03-09T07:17:02.624Z,2796.00
2019-03-09T07:18:02.667Z,2612.00
2019-03-09T07:19:02.716Z,2644.00
2019-03-09T07:20:12.320Z,2676.00
2019-03-09T07:21:02.803Z,2816.00
2019-03-09T07:22:02.867Z,2904.00
2019-03-09T07:23:02.897Z,2864.00
2019-03-09T07:24:02.949Z,2984.00
2019-03-09T07:25:03.005Z,2976.00
2019-03-09T07:26:03.028Z,2920.00
2019-03-09T07:27:03.074Z,2788.00
2019-03-09T07:28:03.120Z,2908.00
2019-03-09T07:29:03.159Z,3116.00
2019-03-09T07:30:03.230Z,3484.00
2019-03-09T07:31:03.286Z,3652.00
2019-03-09T07:32:03.294Z,3716.00
2019-03-09T07:33:03.353Z,3872.00
2019-03-09T07:34:03.384Z,3820.00
2019-03-09T07:35:03.432Z,3780.00
2019-03-09T07:36:03.495Z,3644.00
2019-03-09T07:37:03.524Z,3428.00
2019-03-09T07:38:03.570Z,3176.00
2019-03-09T07:39:03.604Z,3240.00
2019-03-09T07:40:03.659Z,3260.00
2019-03-09T07:41:03.725Z,3112.00
2019-03-09T07:42:03.738Z,3104.00
2019-03-09T07:43:04.326Z,3148.00
2019-03-09T07:44:03.831Z,3292.00
2019-03-09T07:45:03.875Z,3520.00
2019-03-09T07:46:03.938Z,3672.00
2019-03-09T07:47:03.964Z,3688.00
2019-03-09T07:48:04.039Z,3788.00
2019-03-09T07:49:04.057Z,4024.00
2019-03-09T07:50:04.098Z,4252.00
2019-03-09T07:51:04.166Z,4584.00
2019-03-09T07:52:04.194Z,4740.00
2019-03-09T07:53:04.236Z,4616.00
2019-03-09T07:54:04.275Z,4484.00
2019-03-09T07:55:04.325Z,4412.00
2019-03-09T07:56:04.383Z,4352.00
2019-03-09T07:57:04.420Z,4292.00
2019-03-09T07:58:04.457Z,4188.00
2019-03-09T07:59:04.522Z,4100.00
2019-03-09T08:00:04.552Z,4260.00
2019-03-09T08:01:04.608Z,4356.00
2019-03-09T08:02:04.649Z,4076.00
2019-03-09T08:03:04.679Z,3908.00
2019-03-09T08:04:04.727Z,4052.00
2019-03-09T08:05:04.770Z,4124.00
2019-03-09T08:06:04.870Z,4016.00
2019-03-09T08:07:04.863Z,4028.00
2019-03-09T08:08:04.909Z,4048.00
2019-03-09T08:09:04.951Z,4068.00
2019-03-09T08:10:04.992Z,4176.00
2019-03-09T08:11:05.057Z,4464.00
2019-03-09T08:12:05.079Z,4780.00
2019-03-09T08:13:05.132Z,5044.00
2019-03-09T08:14:05.178Z,5156.00
2019-03-09T08:15:05.222Z,4916.00
2019-03-09T08:16:05.284Z,4600.00
2019-03-09T08:17:05.325Z,4412.00
2019-03-09T08:18:05.372Z,4152.00
2019-03-09T08:19:05.397Z,3976.00
2019-03-09T08:20:05.453Z,3976.00
2019-03-09T08:21:05.481Z,4348.00
2019-03-09T08:22:05.546Z,4488.00
2019-03-09T08:23:05.591Z,4396.00
2019-03-09T08:24:05.622Z,4564.00
2019-03-09T08:25:05.669Z,4624.00
2019-03-09T08:26:05.711Z,4460.00
2019-03-09T08:27:05.781Z,4356.00
2019-03-09T08:28:05.852Z,4488.00
2019-03-09T08:29:05.848Z,4788.00
2019-03-09T08:30:05.885Z,4976.00
2019-03-09T08:31:05.940Z,5008.00
2019-03-09T08:32:06.013Z,5032.00
2019-03-09T08:33:06.023Z,5208.00
2019-03-09T08:34:06.074Z,5432.00
2019-03-09T08:35:06.117Z,5760.00
2019-03-09T08:36:06.157Z,6016.00
2019-03-09T08:37:06.230Z,6156.00
2019-03-09T08:38:06.257Z,6224.00
2019-03-09T08:39:06.291Z,6100.00
2019-03-09T08:40:06.344Z,6200.00
2019-03-09T08:41:06.379Z,5856.00
2019-03-09T08:42:06.453Z,5644.00
2019-03-09T08:43:06.466Z,5744.00
2019-03-09T08:44:06.532Z,5816.00
2019-03-09T08:45:06.576Z,5716.00
2019-03-09T08:46:06.651Z,5852.00
2019-03-09T08:47:06.712Z,6116.00
2019-03-09T08:48:06.722Z,6220.00
2019-03-09T08:49:06.863Z,6312.00
2019-03-09T08:50:06.794Z,6444.00
2019-03-09T08:51:06.828Z,6864.00
2019-03-09T08:52:06.873Z,7364.00
2019-03-09T08:53:06.951Z,7400.00
2019-03-09T08:54:06.986Z,7268.00
2019-03-09T08:55:07.008Z,7052.00
2019-03-09T08:56:07.116Z,6824.00
2019-03-09T08:57:07.131Z,6848.00
2019-03-09T08:58:07.163Z,7176.00
2019-03-09T08:59:07.186Z,7232.00
2019-03-09T09:00:07.269Z,7272.00
2019-03-09T09:01:07.305Z,7620.00
2019-03-09T09:02:07.331Z,8076.00
2019-03-09T09:03:07.421Z,8548.00
2019-03-09T09:04:07.420Z,8872.00
2019-03-09T09:05:07.468Z,8988.00
2019-03-09T09:06:07.514Z,9260.00
2019-03-09T09:07:07.551Z,9492.00
2019-03-09T09:08:07.643Z,9500.00
2019-03-09T09:09:07.646Z,8968.00
2019-03-09T09:10:07.691Z,9192.00
2019-03-09T09:11:07.745Z,9596.00
2019-03-09T09:12:07.837Z,9484.00
2019-03-09T09:13:07.849Z,9608.00
2019-03-09T09:14:07.897Z,9996.00
2019-03-09T09:15:07.924Z,10148.00
2019-03-09T09:16:07.976Z,10208.00
2019-03-09T09:17:08.006Z,10252.00
2019-03-09T09:18:08.050Z,11432.00
2019-03-09T09:19:08.181Z,12824.00
2019-03-09T09:20:08.151Z,14620.00
2019-03-09T09:21:08.213Z,16160.00
2019-03-09T09:22:08.243Z,16960.00
2019-03-09T09:23:08.272Z,16100.00
2019-03-09T09:24:08.345Z,15480.00
2019-03-09T09:25:08.367Z,15192.00
2019-03-09T09:26:08.413Z,14908.00
2019-03-09T09:27:08.461Z,15416.00
2019-03-09T09:28:08.505Z,15524.00
2019-03-09T09:29:08.576Z,15744.00
2019-03-09T09:30:08.595Z,15732.00
2019-03-09T09:31:08.654Z,15300.00
2019-03-09T09:32:08.685Z,15636.00
2019-03-09T09:33:08.744Z,16992.00
2019-03-09T09:34:08.821Z,17184.00
2019-03-09T09:35:08.838Z,16304.00
2019-03-09T09:36:08.867Z,15244.00
2019-03-09T09:37:08.920Z,14340.00
2019-03-09T09:38:08.958Z,14196.00
2019-03-09T09:39:09.043Z,14752.00
2019-03-09T09:40:09.078Z,15600.00
2019-03-09T09:41:09.115Z,15968.00
2019-03-09T09:42:09.160Z,16120.00
2019-03-09T09:43:09.192Z,16348.00
2019-03-09T09:44:09.241Z,16232.00
2019-03-09T09:45:09.320Z,16212.00
2019-03-09T09:46:09.337Z,16632.00
2019-03-09T09:47:09.386Z,17152.00
2019-03-09T09:48:09.438Z,17536.00
2019-03-09T09:49:09.483Z,18464.00
2019-03-09T09:50:09.552Z,19296.00
2019-03-09T09:51:09.563Z,20704.00
2019-03-09T09:52:09.619Z,23392.00
2019-03-09T09:53:09.656Z,24832.00
2019-03-09T09:54:09.722Z,25184.00
2019-03-09T09:55:09.795Z,25440.00
2019-03-09T09:56:09.798Z,26752.00
2019-03-09T09:57:09.846Z,26496.00
2019-03-09T09:58:09.894Z,27040.00
2019-03-09T09:59:09.947Z,28544.00
2019-03-09T10:00:10.070Z,28128.00
2019-03-09T10:01:10.042Z,27200.00
2019-03-09T10:02:10.081Z,27776.00
2019-03-09T10:03:10.134Z,29472.00
2019-03-09T10:04:10.189Z,30336.00
2019-03-09T10:05:10.242Z,29216.00
2019-03-09T10:06:10.286Z,30176.00
2019-03-09T10:07:10.322Z,31456.00
2019-03-09T10:08:10.380Z,32864.00
2019-03-09T10:09:10.426Z,31712.00
2019-03-09T10:10:10.468Z,28576.00
2019-03-09T10:11:10.529Z,25920.00
2019-03-09T10:12:10.563Z,24576.00
2019-03-09T10:13:10.604Z,23872.00
2019-03-09T10:14:10.652Z,24800.00
2019-03-09T10:15:10.705Z,25696.00
2019-03-09T10:16:10.766Z,26336.00
2019-03-09T10:17:10.792Z,26944.00
2019-03-09T10:18:10.838Z,26624.00
2019-03-09T10:19:11.237Z,28224.00
2019-03-09T10:20:10.949Z,26400.00
2019-03-09T10:21:11.039Z,25856.00
2019-03-09T10:22:11.033Z,25344.00
2019-03-09T10:23:11.085Z,24800.00
2019-03-09T10:24:11.138Z,24192.00
2019-03-09T10:25:11.177Z,22560.00
2019-03-09T10:26:11.249Z,24192.00
2019-03-09T10:27:11.273Z,28704.00
2019-03-09T10:28:11.433Z,27328.00
2019-03-09T10:29:11.367Z,28064.00
2019-03-09T10:30:11.420Z,27424.00
2019-03-09T10:31:11.492Z,28704.00
2019-03-09T10:32:11.513Z,29120.00
2019-03-09T10:33:11.582Z,35776.00
2019-03-09T10:34:11.608Z,32640.00
2019-03-09T10:35:11.706Z,32576.00
2019-03-09T10:36:11.741Z,30944.00
2019-03-09T10:37:11.790Z,29344.00
2019-03-09T10:38:11.823Z,29280.00
2019-03-09T10:39:11.868Z,28832.00
2019-03-09T10:40:11.902Z,28768.00
2019-03-09T10:41:11.958Z,28992.00
2019-03-09T10:42:12.018Z,28064.00
2019-03-09T10:43:12.049Z,25760.00
2019-03-09T10:44:12.102Z,24480.00
2019-03-09T10:45:12.157Z,23104.00
2019-03-09T10:46:12.199Z,23488.00
2019-03-09T10:47:12.263Z,24320.00
2019-03-09T10:48:12.288Z,24480.00
2019-03-09T10:49:12.344Z,24992.00
2019-03-09T10:50:12.398Z,22400.00
2019-03-09T10:51:12.450Z,21408.00
2019-03-09T10:52:12.511Z,20768.00
2019-03-09T10:53:12.536Z,21184.00
2019-03-09T10:54:12.610Z,21536.00
2019-03-09T10:55:12.643Z,20288.00
2019-03-09T10:56:12.682Z,18976.00
2019-03-09T10:57:12.771Z,17056.00
2019-03-09T10:58:12.833Z,15012.00
2019-03-09T10:59:12.830Z,15652.00
2019-03-09T11:00:12.960Z,17024.00
2019-03-09T11:01:12.923Z,17312.00
2019-03-09T11:02:13.000Z,17312.00
2019-03-09T11:03:13.021Z,18080.00
2019-03-09T11:04:13.071Z,16436.00
2019-03-09T11:05:13.123Z,14716.00
2019-03-09T11:06:13.171Z,12484.00
2019-03-09T11:07:13.242Z,12084.00
2019-03-09T11:08:13.264Z,11760.00
2019-03-09T11:09:13.405Z,10964.00
2019-03-09T11:10:13.360Z,10992.00
2019-03-09T11:11:13.415Z,10548.00
2019-03-09T11:12:13.484Z,10260.00
2019-03-09T11:13:13.531Z,10016.00
2019-03-09T11:14:13.551Z,9728.00
2019-03-09T11:15:13.603Z,10648.00
2019-03-09T11:16:13.683Z,13268.00
2019-03-09T11:17:13.698Z,14836.00
2019-03-09T11:18:13.787Z,15164.00
2019-03-09T11:19:13.793Z,14568.00
2019-03-09T11:20:13.863Z,13860.00
2019-03-09T11:21:13.900Z,16252.00
2019-03-09T11:22:13.947Z,20032.00
2019-03-09T11:23:14.028Z,21504.00
2019-03-09T11:24:14.039Z,18400.00
2019-03-09T11:25:14.081Z,18368.00
2019-03-09T11:26:14.128Z,19936.00
2019-03-09T11:27:14.183Z,21056.00
2019-03-09T11:28:14.262Z,22848.00
2019-03-09T11:29:14.276Z,20928.00
2019-03-09T11:30:14.337Z,21056.00
2019-03-09T11:31:14.378Z,19840.00
2019-03-09T11:32:14.430Z,20736.00
2019-03-09T11:33:14.498Z,21888.00
2019-03-09T11:34:14.533Z,27232.00
2019-03-09T11:35:14.560Z,36288.00
2019-03-09T11:36:14.613Z,29472.00
2019-03-09T11:37:14.657Z,40224.00
2019-03-09T11:38:14.702Z,41984.00
2019-03-09T11:39:14.786Z,41344.00
2019-03-09T11:40:14.807Z,41696.00
2019-03-09T11:41:19.018Z,39648.00
2019-03-09T11:42:14.896Z,31360.00
2019-03-09T11:43:14.950Z,38816.00
2019-03-09T11:44:15.026Z,33280.00
2019-03-09T11:45:15.056Z,30112.00
2019-03-09T11:46:15.109Z,28576.00
2019-03-09T11:47:15.161Z,26912.00
2019-03-09T11:48:15.258Z,25824.00
2019-03-09T11:49:15.261Z,25344.00
2019-03-09T11:50:15.319Z,25216.00
2019-03-09T11:51:15.355Z,25248.00
2019-03-09T11:52:19.987Z,25440.00
2019-03-09T11:53:15.450Z,25696.00
2019-03-09T11:54:15.517Z,26048.00
2019-03-09T11:55:15.581Z,25984.00
2019-03-09T11:56:15.609Z,25600.00
2019-03-09T11:57:15.633Z,25536.00
2019-03-09T11:58:15.694Z,25888.00
2019-03-09T11:59:15.787Z,24032.00
2019-03-09T12:00:15.776Z,21408.00
2019-03-09T12:01:15.829Z,20960.00
2019-03-09T12:02:15.894Z,18752.00
2019-03-09T12:03:15.936Z,15516.00
2019-03-09T12:04:16.015Z,14348.00
2019-03-09T12:05:16.080Z,14148.00
2019-03-09T12:06:16.103Z,14456.00
2019-03-09T12:07:16.136Z,14580.00
2019-03-09T12:08:16.169Z,14664.00
2019-03-09T12:09:16.227Z,16164.00
2019-03-09T12:10:16.297Z,17056.00
2019-03-09T12:11:16.324Z,16764.00
2019-03-09T12:12:16.367Z,16492.00
2019-03-09T12:13:16.426Z,16960.00
2019-03-09T12:14:16.478Z,16448.00
2019-03-09T12:15:16.553Z,15168.00
2019-03-09T12:16:16.571Z,14604.00
2019-03-09T12:17:16.624Z,15636.00
2019-03-09T12:18:16.660Z,17056.00
2019-03-09T12:19:16.707Z,17024.00
2019-03-09T12:20:16.788Z,16436.00
2019-03-09T12:21:16.807Z,17184.00
2019-03-09T12:22:16.860Z,16780.00
2019-03-09T12:23:16.916Z,16348.00
2019-03-09T12:24:19.871Z,15428.00
2019-03-09T12:25:17.022Z,14136.00
2019-03-09T12:26:17.051Z,14188.00
2019-03-09T12:27:17.105Z,13492.00
2019-03-09T12:28:17.155Z,13552.00
2019-03-09T12:29:17.192Z,13912.00
2019-03-09T12:30:17.284Z,12608.00
2019-03-09T12:31:17.321Z,11548.00
2019-03-09T12:32:17.336Z,11056.00
2019-03-09T12:33:17.399Z,11564.00